createdAt,value
2022-08-16T00:00:25.887Z,5.50
2022-08-16T00:01:07.662Z,5.40
2022-08-16T00:01:50.262Z,5.28
2022-08-16T00:02:33.727Z,5.75
2022-08-16T00:03:15.808Z,5.03
2022-08-16T00:03:59.806Z,5.22
2022-08-16T00:04:42.770Z,4.90
2022-08-16T00:05:25.749Z,5.40
2022-08-16T00:06:10.111Z,4.60
2022-08-16T00:06:52.303Z,5.32
2022-08-16T00:07:36.318Z,5.05
2022-08-16T00:08:36.773Z,4.75
2022-08-16T00:09:19.560Z,4.90
2022-08-16T00:10:01.295Z,5.00
2022-08-16T00:10:43.168Z,5.18
2022-08-16T00:11:24.857Z,5.20
2022-08-16T00:12:08.221Z,5.40
2022-08-16T00:12:51.016Z,5.13
2022-08-16T00:13:41.785Z,4.80
2022-08-16T00:14:29.097Z,5.07
2022-08-16T00:15:19.186Z,5.00
2022-08-16T00:17:05.736Z,4.70
2022-08-16T00:17:19.123Z,5.32
2022-08-16T00:18:01.617Z,5.20
2022-08-16T00:18:43.538Z,4.90
2022-08-16T00:19:41.006Z,5.15
2022-08-16T00:20:24.216Z,5.15
2022-08-16T00:21:06.673Z,4.60
2022-08-16T00:21:51.872Z,5.30
2022-08-16T00:22:37.155Z,5.00
2022-08-16T00:23:34.507Z,5.10
2022-08-16T00:24:31.243Z,5.05
2022-08-16T00:25:16.784Z,5.10
2022-08-16T00:26:36.036Z,5.30
2022-08-16T00:27:02.167Z,6.07
2022-08-16T00:27:44.066Z,5.50
2022-08-16T00:28:29.853Z,5.20
2022-08-16T00:29:15.693Z,5.05
2022-08-16T00:30:08.792Z,5.05
2022-08-16T00:31:01.135Z,5.35
2022-08-16T00:31:59.318Z,5.45
2022-08-16T00:32:45.006Z,5.10
2022-08-16T00:33:27.380Z,5.07
2022-08-16T00:34:18.107Z,5.50
2022-08-16T00:35:01.659Z,5.35
2022-08-16T00:35:43.527Z,4.95
2022-08-16T00:36:25.334Z,4.75
2022-08-16T00:37:07.057Z,5.87
2022-08-16T00:37:57.869Z,5.90
2022-08-16T00:38:43.711Z,5.15
2022-08-16T00:39:25.648Z,5.40
2022-08-16T00:40:34.995Z,4.90
2022-08-16T00:41:11.346Z,5.70
2022-08-16T00:41:53.376Z,5.45
2022-08-16T00:42:35.221Z,5.20
2022-08-16T00:43:19.645Z,4.95
2022-08-16T00:44:10.699Z,4.90
2022-08-16T00:44:56.154Z,5.10
2022-08-16T00:45:58.489Z,5.38
2022-08-16T00:47:05.920Z,5.40
2022-08-16T00:47:49.401Z,5.25
2022-08-16T00:48:44.286Z,5.22
2022-08-16T00:49:28.583Z,5.15
2022-08-16T00:50:36.217Z,5.70
2022-08-16T00:51:21.538Z,5.40
2022-08-16T00:52:03.612Z,5.65
2022-08-16T00:52:45.998Z,5.40
2022-08-16T00:53:32.647Z,5.60
2022-08-16T00:54:14.434Z,5.70
2022-08-16T00:55:04.573Z,5.72
2022-08-16T00:55:53.321Z,5.47
2022-08-16T00:56:58.519Z,6.07
2022-08-16T00:57:59.098Z,5.10
2022-08-16T00:58:44.795Z,6.10
2022-08-16T00:59:32.905Z,6.10
2022-08-16T01:00:20.026Z,6.28
2022-08-16T01:01:03.657Z,5.93
2022-08-16T01:01:50.730Z,6.00
2022-08-16T01:02:33.404Z,5.63
2022-08-16T01:03:18.348Z,5.70
2022-08-16T01:04:29.462Z,4.90
2022-08-16T01:05:12.334Z,5.10
2022-08-16T01:05:54.872Z,5.40
2022-08-16T01:06:48.929Z,5.80
2022-08-16T01:07:49.761Z,5.75
2022-08-16T01:08:36.740Z,5.57
2022-08-16T01:09:19.601Z,5.65
2022-08-16T01:10:05.754Z,5.72
2022-08-16T01:11:00.160Z,5.60
2022-08-16T01:11:53.758Z,5.40
2022-08-16T01:12:36.987Z,5.60
2022-08-16T01:13:24.316Z,5.70
2022-08-16T01:14:20.248Z,5.05
2022-08-16T01:15:08.657Z,5.50
2022-08-16T01:15:57.929Z,5.20
2022-08-16T01:16:42.860Z,5.50
2022-08-16T01:17:26.751Z,5.13
2022-08-16T01:18:40.678Z,5.43
2022-08-16T01:19:27.089Z,5.40
2022-08-16T01:20:23.769Z,4.90
2022-08-16T01:21:33.276Z,5.47
2022-08-16T01:22:47.977Z,5.28
2022-08-16T01:23:58.066Z,5.20
2022-08-16T01:24:53.866Z,5.13
2022-08-16T01:25:41.856Z,5.22
2022-08-16T01:26:34.658Z,5.30
2022-08-16T01:27:23.986Z,5.00
2022-08-16T01:28:11.342Z,5.57
2022-08-16T01:29:09.866Z,5.03
2022-08-16T01:30:03.757Z,4.72
2022-08-16T01:30:50.824Z,5.10
2022-08-16T01:31:32.818Z,5.20
2022-08-16T01:32:33.500Z,4.97
2022-08-16T01:33:17.538Z,5.60
2022-08-16T01:34:01.207Z,5.15
2022-08-16T01:34:47.410Z,5.55
2022-08-16T01:35:35.072Z,5.35
2022-08-16T01:36:17.954Z,4.90
2022-08-16T01:37:09.889Z,5.32
2022-08-16T01:37:54.667Z,5.43
2022-08-16T01:38:41.158Z,5.70
2022-08-16T01:39:31.647Z,5.22
2022-08-16T01:40:19.243Z,5.00
2022-08-16T01:41:19.203Z,4.70
2022-08-16T01:42:04.650Z,5.25
2022-08-16T01:42:55.854Z,5.00
2022-08-16T01:43:41.513Z,4.60
2022-08-16T01:44:24.115Z,4.60
2022-08-16T01:45:20.533Z,4.70
2022-08-16T01:46:29.238Z,4.72
2022-08-16T01:47:10.365Z,4.43
2022-08-16T01:47:52.523Z,4.90
2022-08-16T01:48:34.551Z,4.70
2022-08-16T01:49:24.890Z,4.78
2022-08-16T01:50:43.387Z,4.68
2022-08-16T01:51:28.786Z,4.90
2022-08-16T01:52:29.195Z,5.28
2022-08-16T01:53:12.861Z,4.70
2022-08-16T01:53:55.994Z,4.75
2022-08-16T01:54:39.739Z,4.80
2022-08-16T01:55:23.870Z,5.00
2022-08-16T01:56:06.321Z,4.90
2022-08-16T01:56:49.244Z,4.78
2022-08-16T01:57:31.706Z,4.82
2022-08-16T01:58:16.093Z,4.63
2022-08-16T01:59:06.198Z,4.30
2022-08-16T01:59:48.265Z,4.32
2022-08-16T02:00:36.234Z,5.00
2022-08-16T02:01:19.790Z,4.50
2022-08-16T02:02:01.956Z,5.05
2022-08-16T02:02:44.826Z,5.00
2022-08-16T02:03:34.548Z,5.00
2022-08-16T02:04:48.334Z,4.80
2022-08-16T02:05:19.945Z,4.60
2022-08-16T02:06:07.891Z,4.80
2022-08-16T02:06:51.880Z,4.85
2022-08-16T02:07:34.228Z,5.20
2022-08-16T02:08:33.782Z,5.30
2022-08-16T02:09:18.019Z,4.35
2022-08-16T02:10:01.973Z,4.75
2022-08-16T02:10:44.092Z,5.20
2022-08-16T02:11:28.417Z,4.60
2022-08-16T02:12:49.559Z,4.78
2022-08-16T02:13:33.104Z,4.90
2022-08-16T02:14:18.084Z,4.97
2022-08-16T02:15:05.390Z,4.20
2022-08-16T02:15:47.738Z,4.20
2022-08-16T02:16:32.713Z,4.60
2022-08-16T02:17:14.866Z,5.57
2022-08-16T02:18:01.383Z,5.10
2022-08-16T02:18:43.292Z,4.40
2022-08-16T02:19:59.165Z,4.40
2022-08-16T02:20:39.463Z,4.80
2022-08-16T02:21:31.344Z,5.07
2022-08-16T02:22:34.479Z,4.60
2022-08-16T02:23:18.638Z,5.00
2022-08-16T02:24:00.421Z,4.78
2022-08-16T02:24:45.886Z,4.40
2022-08-16T02:25:50.572Z,5.05
2022-08-16T02:26:34.458Z,5.10
2022-08-16T02:27:16.609Z,4.47
2022-08-16T02:27:59.165Z,4.47
2022-08-16T02:28:45.209Z,5.10
2022-08-16T02:29:31.949Z,4.20
2022-08-16T02:30:36.088Z,4.40
2022-08-16T02:31:19.945Z,4.72
2022-08-16T02:32:04.163Z,4.72
2022-08-16T02:33:05.366Z,4.88
2022-08-16T02:33:50.142Z,4.47
2022-08-16T02:34:34.703Z,4.70
2022-08-16T02:35:23.682Z,4.35
2022-08-16T02:36:05.962Z,4.60
2022-08-16T02:36:55.830Z,4.97
2022-08-16T02:37:51.419Z,4.45
2022-08-16T02:38:35.146Z,5.05
2022-08-16T02:39:19.329Z,5.20
2022-08-16T02:40:05.876Z,5.28
2022-08-16T02:40:49.007Z,5.55
2022-08-16T02:41:30.981Z,5.30
2022-08-16T02:42:12.713Z,4.70
2022-08-16T02:42:55.339Z,4.80
2022-08-16T02:43:37.838Z,4.93
2022-08-16T02:44:20.233Z,5.00
2022-08-16T02:45:02.296Z,4.72
2022-08-16T02:45:44.064Z,5.05
2022-08-16T02:46:33.322Z,4.95
2022-08-16T02:47:25.352Z,4.60
2022-08-16T02:48:28.606Z,5.38
2022-08-16T02:49:11.447Z,5.25
2022-08-16T02:50:37.330Z,4.80
2022-08-16T02:51:05.823Z,4.75
2022-08-16T02:51:52.274Z,4.72
2022-08-16T02:52:34.192Z,4.78
2022-08-16T02:53:18.320Z,4.90
2022-08-16T02:54:07.200Z,4.40
2022-08-16T02:54:55.280Z,4.80
2022-08-16T02:55:41.147Z,5.05
2022-08-16T02:56:23.305Z,4.85
2022-08-16T02:57:13.859Z,4.97
2022-08-16T02:57:55.684Z,4.40
2022-08-16T02:58:38.523Z,4.47
2022-08-16T02:59:20.883Z,4.78
2022-08-16T03:00:33.989Z,5.00
2022-08-16T03:01:25.407Z,4.72
2022-08-16T03:02:14.346Z,4.72
2022-08-16T03:02:58.154Z,4.70
2022-08-16T03:04:28.910Z,4.35
2022-08-16T03:04:51.196Z,5.57
2022-08-16T03:05:33.871Z,5.10
2022-08-16T03:06:39.610Z,4.50
2022-08-16T03:07:27.807Z,4.57
2022-08-16T03:08:51.171Z,4.78
2022-08-16T03:09:14.753Z,4.78
2022-08-16T03:10:00.399Z,5.00
2022-08-16T03:10:42.449Z,5.00
2022-08-16T03:11:35.549Z,4.90
2022-08-16T03:12:19.178Z,4.90
2022-08-16T03:13:01.605Z,4.90
2022-08-16T03:13:56.504Z,5.22
2022-08-16T03:14:38.545Z,5.03
2022-08-16T03:15:24.587Z,4.70
2022-08-16T03:16:07.214Z,4.72
2022-08-16T03:17:08.962Z,5.10
2022-08-16T03:17:53.919Z,4.90
2022-08-16T03:18:40.460Z,5.03
2022-08-16T03:19:22.601Z,4.82
2022-08-16T03:20:06.757Z,4.80
2022-08-16T03:20:55.790Z,5.15
2022-08-16T03:21:38.892Z,5.00
2022-08-16T03:22:28.112Z,4.63
2022-08-16T03:23:10.901Z,4.97
2022-08-16T03:23:56.421Z,4.43
2022-08-16T03:24:38.125Z,4.50
2022-08-16T03:25:19.938Z,4.57
2022-08-16T03:26:01.794Z,4.65
2022-08-16T03:26:44.233Z,5.53
2022-08-16T03:27:30.907Z,4.63
2022-08-16T03:28:14.006Z,4.68
2022-08-16T03:28:59.164Z,5.20
2022-08-16T03:29:54.281Z,5.18
2022-08-16T03:30:36.884Z,5.10
2022-08-16T03:31:18.593Z,5.15
2022-08-16T03:32:01.862Z,4.85
2022-08-16T03:32:44.805Z,4.68
2022-08-16T03:33:29.860Z,5.00
2022-08-16T03:34:11.661Z,5.00
2022-08-16T03:34:54.963Z,4.97
2022-08-16T03:35:40.199Z,4.60
2022-08-16T03:36:30.694Z,4.32
2022-08-16T03:37:14.733Z,4.80
2022-08-16T03:38:02.792Z,5.25
2022-08-16T03:38:45.698Z,4.90
2022-08-16T03:39:29.049Z,5.10
2022-08-16T03:40:31.693Z,5.30
2022-08-16T03:41:25.102Z,4.53
2022-08-16T03:42:11.119Z,4.97
2022-08-16T03:43:19.965Z,5.00
2022-08-16T03:44:02.775Z,4.70
2022-08-16T03:44:47.592Z,4.63
2022-08-16T03:45:33.328Z,4.53
2022-08-16T03:46:44.285Z,4.38
2022-08-16T03:47:19.806Z,4.65
2022-08-16T03:48:02.960Z,4.75
2022-08-16T03:48:49.520Z,4.82
2022-08-16T03:49:37.065Z,5.30
2022-08-16T03:50:25.410Z,5.20
2022-08-16T03:51:12.123Z,4.60
2022-08-16T03:51:54.430Z,4.50
2022-08-16T03:52:36.259Z,4.85
2022-08-16T03:53:18.105Z,4.97
2022-08-16T03:54:01.222Z,5.07
2022-08-16T03:54:53.287Z,4.90
2022-08-16T03:55:45.165Z,4.50
2022-08-16T03:56:27.886Z,5.03
2022-08-16T03:57:15.611Z,4.70
2022-08-16T03:57:58.186Z,4.30
2022-08-16T03:58:40.374Z,4.43
2022-08-16T03:59:29.418Z,5.10
2022-08-16T04:00:20.496Z,4.50
2022-08-16T04:01:17.450Z,4.85
2022-08-16T04:02:01.122Z,4.32
2022-08-16T04:02:44.243Z,4.60
2022-08-16T04:03:26.023Z,4.47
2022-08-16T04:04:11.949Z,4.70
2022-08-16T04:05:07.363Z,4.80
2022-08-16T04:05:51.171Z,4.70
2022-08-16T04:06:35.952Z,5.15
2022-08-16T04:07:17.828Z,4.63
2022-08-16T04:07:59.986Z,4.75
2022-08-16T04:08:41.686Z,4.40
2022-08-16T04:09:25.457Z,4.35
2022-08-16T04:10:36.956Z,5.07
2022-08-16T04:11:16.298Z,5.03
2022-08-16T04:11:58.672Z,4.38
2022-08-16T04:12:53.904Z,4.80
2022-08-16T04:14:00.121Z,5.05
2022-08-16T04:14:46.619Z,4.20
2022-08-16T04:15:30.191Z,5.10
2022-08-16T04:16:27.535Z,4.90
2022-08-16T04:17:10.283Z,4.50
2022-08-16T04:17:54.833Z,4.80
2022-08-16T04:18:38.677Z,4.63
2022-08-16T04:19:20.685Z,4.22
2022-08-16T04:20:23.191Z,4.53
2022-08-16T04:21:10.539Z,5.07
2022-08-16T04:21:52.382Z,5.00
2022-08-16T04:22:39.857Z,5.00
2022-08-16T04:23:23.391Z,4.57
2022-08-16T04:24:07.832Z,5.00
2022-08-16T04:24:54.741Z,4.95
2022-08-16T04:25:37.689Z,4.72
2022-08-16T04:26:19.418Z,4.50
2022-08-16T04:27:01.958Z,5.20
2022-08-16T04:27:54.316Z,5.05
2022-08-16T04:28:53.669Z,5.00
2022-08-16T04:29:46.098Z,4.70
2022-08-16T04:30:30.219Z,4.70
2022-08-16T04:31:14.247Z,4.63
2022-08-16T04:31:58.057Z,5.07
2022-08-16T04:32:41.249Z,5.10
2022-08-16T04:33:27.499Z,4.80
2022-08-16T04:34:09.359Z,4.80
2022-08-16T04:34:51.120Z,4.60
2022-08-16T04:35:33.975Z,5.00
2022-08-16T04:36:20.142Z,4.50
2022-08-16T04:37:03.049Z,4.60
2022-08-16T04:37:48.421Z,4.90
2022-08-16T04:38:35.796Z,4.88
2022-08-16T04:39:19.132Z,5.20
2022-08-16T04:40:10.690Z,5.28
2022-08-16T04:41:02.613Z,4.72
2022-08-16T04:41:44.393Z,4.80
2022-08-16T04:42:29.807Z,4.57
2022-08-16T04:43:18.601Z,4.40
2022-08-16T04:44:00.813Z,4.55
2022-08-16T04:44:54.345Z,5.10
2022-08-16T04:45:37.128Z,4.45
2022-08-16T04:46:32.057Z,4.00
2022-08-16T04:47:21.917Z,5.15
2022-08-16T04:48:06.079Z,5.30
2022-08-16T04:48:47.795Z,4.60
2022-08-16T04:49:43.939Z,4.50
2022-08-16T04:50:30.380Z,4.80
2022-08-16T04:51:12.828Z,5.00
2022-08-16T04:51:55.451Z,4.80
2022-08-16T04:52:38.097Z,4.63
2022-08-16T04:53:19.901Z,4.60
2022-08-16T04:54:01.675Z,4.93
2022-08-16T04:54:45.295Z,4.80
2022-08-16T04:55:37.893Z,5.05
2022-08-16T04:56:20.649Z,4.85
2022-08-16T04:57:02.345Z,4.57
2022-08-16T04:57:45.645Z,4.82
2022-08-16T04:58:44.825Z,4.82
2022-08-16T04:59:29.622Z,4.72
2022-08-16T05:00:32.867Z,5.13
2022-08-16T05:01:17.749Z,4.60
2022-08-16T05:01:59.767Z,4.85
2022-08-16T05:02:42.935Z,5.20
2022-08-16T05:03:24.807Z,5.13
2022-08-16T05:04:19.541Z,4.82
2022-08-16T05:05:02.011Z,4.80
2022-08-16T05:05:45.091Z,4.72
2022-08-16T05:06:42.119Z,4.78
2022-08-16T05:07:26.727Z,4.63
2022-08-16T05:08:28.077Z,4.90
2022-08-16T05:09:11.308Z,4.72
2022-08-16T05:09:53.032Z,4.35
2022-08-16T05:10:36.749Z,4.35
2022-08-16T05:11:18.722Z,4.43
2022-08-16T05:12:03.391Z,4.53
2022-08-16T05:12:46.781Z,4.70
2022-08-16T05:13:40.653Z,5.13
2022-08-16T05:14:45.606Z,4.63
2022-08-16T05:15:26.179Z,4.65
2022-08-16T05:16:19.757Z,4.70
2022-08-16T05:17:03.289Z,4.78
2022-08-16T05:17:45.392Z,4.60
2022-08-16T05:18:28.588Z,4.70
2022-08-16T05:19:11.627Z,5.00
2022-08-16T05:19:57.603Z,4.75
2022-08-16T05:20:54.059Z,5.10
2022-08-16T05:21:42.592Z,4.87
2022-08-16T05:22:28.410Z,4.90
2022-08-16T05:23:10.405Z,4.70
2022-08-16T05:23:58.476Z,4.82
2022-08-16T05:24:41.940Z,4.50
2022-08-16T05:25:36.421Z,4.25
2022-08-16T05:26:24.905Z,5.13
2022-08-16T05:27:11.541Z,4.75
2022-08-16T05:27:55.592Z,4.63
2022-08-16T05:28:39.163Z,5.00
2022-08-16T05:29:20.925Z,4.80
2022-08-16T05:30:34.365Z,4.40
2022-08-16T05:31:06.799Z,4.63
2022-08-16T05:31:53.154Z,4.70
2022-08-16T05:32:45.685Z,5.10
2022-08-16T05:33:29.372Z,4.65
2022-08-16T05:34:19.692Z,5.05
2022-08-16T05:35:04.596Z,5.30
2022-08-16T05:35:54.809Z,5.18
2022-08-16T05:36:37.633Z,4.97
2022-08-16T05:37:26.058Z,4.53
2022-08-16T05:38:33.498Z,4.68
2022-08-16T05:39:12.538Z,4.53
2022-08-16T05:39:55.440Z,4.80
2022-08-16T05:40:37.367Z,5.05
2022-08-16T05:41:19.155Z,5.13
2022-08-16T05:42:01.199Z,5.20
2022-08-16T05:42:46.142Z,4.78
2022-08-16T05:43:32.269Z,4.95
2022-08-16T05:44:25.626Z,4.70
2022-08-16T05:45:08.100Z,4.38
2022-08-16T05:45:51.469Z,4.60
2022-08-16T05:46:33.643Z,4.90
2022-08-16T05:47:15.365Z,4.40
2022-08-16T05:47:59.558Z,4.68
2022-08-16T05:48:42.165Z,5.10
2022-08-16T05:49:26.184Z,5.20
2022-08-16T05:50:21.001Z,5.30
2022-08-16T05:51:10.130Z,4.53
2022-08-16T05:51:54.873Z,4.68
2022-08-16T05:52:37.420Z,4.65
2022-08-16T05:53:26.459Z,4.90
2022-08-16T05:54:14.217Z,4.80
2022-08-16T05:54:58.702Z,4.90
2022-08-16T05:55:43.666Z,4.60
2022-08-16T05:56:25.378Z,4.60
2022-08-16T05:57:07.122Z,4.57
2022-08-16T05:57:55.064Z,4.90
2022-08-16T05:58:36.923Z,4.72
2022-08-16T05:59:19.531Z,4.80
2022-08-16T06:00:10.180Z,5.20
2022-08-16T06:00:52.013Z,5.05
2022-08-16T06:01:38.535Z,5.00
2022-08-16T06:02:24.461Z,4.85
2022-08-16T06:03:12.981Z,5.10
2022-08-16T06:03:54.953Z,5.45
2022-08-16T06:04:44.859Z,5.00
2022-08-16T06:05:27.006Z,5.18
2022-08-16T06:06:09.354Z,5.05
2022-08-16T06:06:56.961Z,5.85
2022-08-16T06:07:39.515Z,5.60
2022-08-16T06:08:31.791Z,5.80
2022-08-16T06:09:16.703Z,4.60
2022-08-16T06:10:00.206Z,4.95
2022-08-16T06:11:09.522Z,5.47
2022-08-16T06:11:44.923Z,5.70
2022-08-16T06:12:28.602Z,5.65
2022-08-16T06:13:10.639Z,5.40
2022-08-16T06:13:52.451Z,5.80
2022-08-16T06:14:37.265Z,6.30
2022-08-16T06:15:21.953Z,5.65
2022-08-16T06:16:05.654Z,6.10
2022-08-16T06:16:50.830Z,5.93
2022-08-16T06:17:43.186Z,5.60
2022-08-16T06:18:27.337Z,5.47
2022-08-16T06:19:09.485Z,6.00
2022-08-16T06:19:52.331Z,5.30
2022-08-16T06:20:35.446Z,5.05
2022-08-16T06:21:22.826Z,5.25
2022-08-16T06:22:05.815Z,5.00
2022-08-16T06:22:57.449Z,4.68
2022-08-16T06:23:40.457Z,4.90
2022-08-16T06:24:53.345Z,5.00
2022-08-16T06:25:36.628Z,5.32
2022-08-16T06:26:21.700Z,5.32
2022-08-16T06:27:03.777Z,5.22
2022-08-16T06:27:57.146Z,6.00
2022-08-16T06:28:40.059Z,5.65
2022-08-16T06:29:22.890Z,5.82
2022-08-16T06:30:10.697Z,5.82
2022-08-16T06:30:53.120Z,5.43
2022-08-16T06:31:45.269Z,5.80
2022-08-16T06:32:36.984Z,5.50
2022-08-16T06:33:22.606Z,5.30
2022-08-16T06:34:04.831Z,5.50
2022-08-16T06:35:07.233Z,5.57
2022-08-16T06:35:49.317Z,5.60
2022-08-16T06:36:32.225Z,5.90
2022-08-16T06:37:14.332Z,5.20
2022-08-16T06:37:56.047Z,5.38
2022-08-16T06:38:37.745Z,6.00
2022-08-16T06:39:19.633Z,6.25
2022-08-16T06:40:02.424Z,5.95
2022-08-16T06:40:49.198Z,5.88
2022-08-16T06:41:39.723Z,6.32
2022-08-16T06:42:22.196Z,5.88
2022-08-16T06:43:05.664Z,5.95
2022-08-16T06:43:51.092Z,5.32
2022-08-16T06:44:33.078Z,5.10
2022-08-16T06:45:15.250Z,5.93
2022-08-16T06:45:57.098Z,5.70
2022-08-16T06:46:39.014Z,5.30
2022-08-16T06:47:20.756Z,6.10
2022-08-16T06:48:02.446Z,6.20
2022-08-16T06:48:46.256Z,6.35
2022-08-16T06:49:32.857Z,6.18
2022-08-16T06:50:22.141Z,5.60
2022-08-16T06:51:10.734Z,5.30
2022-08-16T06:51:53.038Z,5.47
2022-08-16T06:53:08.267Z,6.57
2022-08-16T06:53:47.825Z,6.18
2022-08-16T06:54:35.175Z,5.80
2022-08-16T06:55:18.492Z,6.45
2022-08-16T06:56:05.739Z,5.85
2022-08-16T06:56:47.439Z,5.72
2022-08-16T06:57:34.605Z,5.60
2022-08-16T06:58:22.968Z,5.75
2022-08-16T06:59:14.034Z,5.90
2022-08-16T06:59:58.501Z,5.70
2022-08-16T07:00:43.013Z,5.90
2022-08-16T07:01:45.072Z,6.03
2022-08-16T07:02:33.001Z,6.10
2022-08-16T07:03:26.707Z,6.55
2022-08-16T07:04:10.345Z,6.60
2022-08-16T07:04:54.008Z,5.43
2022-08-16T07:05:41.955Z,5.40
2022-08-16T07:06:26.575Z,6.00
2022-08-16T07:07:09.683Z,5.13
2022-08-16T07:07:55.069Z,5.53
2022-08-16T07:08:37.792Z,6.38
2022-08-16T07:09:20.512Z,6.00
2022-08-16T07:10:08.820Z,6.50
2022-08-16T07:10:52.132Z,6.57
2022-08-16T07:11:46.018Z,5.95
2022-08-16T07:12:45.828Z,5.88
2022-08-16T07:14:00.416Z,5.90
2022-08-16T07:14:33.557Z,6.80
2022-08-16T07:15:20.022Z,6.70
2022-08-16T07:16:08.259Z,6.15
2022-08-16T07:16:49.956Z,6.35
2022-08-16T07:17:32.860Z,6.40
2022-08-16T07:18:15.213Z,6.70
2022-08-16T07:19:01.995Z,6.80
2022-08-16T07:20:02.779Z,6.70
2022-08-16T07:20:48.425Z,6.22
2022-08-16T07:21:46.691Z,5.93
2022-08-16T07:22:37.942Z,6.00
2022-08-16T07:23:38.834Z,5.65
2022-08-16T07:24:29.871Z,5.78
2022-08-16T07:25:15.984Z,5.90
2022-08-16T07:25:59.130Z,6.25
2022-08-16T07:26:41.509Z,6.60
2022-08-16T07:27:32.159Z,6.78
2022-08-16T07:28:20.652Z,6.07
2022-08-16T07:29:07.756Z,6.05
2022-08-16T07:29:49.555Z,6.30
2022-08-16T07:30:46.879Z,6.13
2022-08-16T07:31:37.735Z,5.93
2022-08-16T07:32:29.486Z,6.10
2022-08-16T07:33:15.949Z,6.37
2022-08-16T07:33:58.729Z,6.53
2022-08-16T07:34:48.602Z,6.20
2022-08-16T07:35:30.942Z,6.25
2022-08-16T07:36:14.689Z,6.10
2022-08-16T07:37:09.600Z,5.65
2022-08-16T07:37:51.611Z,5.88
2022-08-16T07:38:34.247Z,6.25
2022-08-16T07:39:16.132Z,6.47
2022-08-16T07:39:57.912Z,5.80
2022-08-16T07:41:00.117Z,6.28
2022-08-16T07:41:41.941Z,5.73
2022-08-16T07:42:28.567Z,5.82
2022-08-16T07:43:17.181Z,6.10
2022-08-16T07:43:59.913Z,5.85
2022-08-16T07:44:49.130Z,5.72
2022-08-16T07:45:33.682Z,6.18
2022-08-16T07:46:38.752Z,5.97
2022-08-16T07:47:17.391Z,5.63
2022-08-16T07:48:00.427Z,5.60
2022-08-16T07:48:55.191Z,5.88
2022-08-16T07:49:37.030Z,6.20
2022-08-16T07:50:58.887Z,5.80
2022-08-16T07:51:37.377Z,6.30
2022-08-16T07:52:20.642Z,6.40
2022-08-16T07:53:02.701Z,5.30
2022-08-16T07:53:45.405Z,5.47
2022-08-16T07:54:37.914Z,5.90
2022-08-16T07:55:21.145Z,5.80
2022-08-16T07:56:04.387Z,6.00
2022-08-16T07:56:46.850Z,5.70
2022-08-16T07:57:28.551Z,5.47
2022-08-16T07:58:10.241Z,5.57
2022-08-16T07:59:01.328Z,5.80
2022-08-16T07:59:46.064Z,5.55
2022-08-16T08:00:28.407Z,5.57
2022-08-16T08:01:15.213Z,5.57
2022-08-16T08:01:58.449Z,5.50
2022-08-16T08:02:40.211Z,5.13
2022-08-16T08:03:24.536Z,5.97
2022-08-16T08:04:21.535Z,6.15
2022-08-16T08:05:04.612Z,6.25
2022-08-16T08:05:46.412Z,5.47
2022-08-16T08:06:31.073Z,5.45
2022-08-16T08:07:13.476Z,5.80
2022-08-16T08:07:58.043Z,5.55
2022-08-16T08:08:50.643Z,5.30
2022-08-16T08:09:34.329Z,5.40
2022-08-16T08:10:29.155Z,5.30
2022-08-16T08:11:11.689Z,5.50
2022-08-16T08:12:00.899Z,6.05
2022-08-16T08:12:44.603Z,6.15
2022-08-16T08:13:28.923Z,5.72
2022-08-16T08:14:29.889Z,5.70
2022-08-16T08:15:12.254Z,6.20
2022-08-16T08:15:54.023Z,6.13
2022-08-16T08:16:37.093Z,5.43
2022-08-16T08:17:19.103Z,6.10
2022-08-16T08:18:29.192Z,6.25
2022-08-16T08:19:04.691Z,5.07
2022-08-16T08:19:53.299Z,5.70
2022-08-16T08:20:35.431Z,5.70
2022-08-16T08:21:27.535Z,5.43
2022-08-16T08:22:22.968Z,5.40
2022-08-16T08:23:08.307Z,5.40
2022-08-16T08:23:52.466Z,5.95
2022-08-16T08:24:34.709Z,5.60
2022-08-16T08:25:18.480Z,5.80
2022-08-16T08:26:00.813Z,5.72
2022-08-16T08:26:43.663Z,5.40
2022-08-16T08:27:26.673Z,5.47
2022-08-16T08:28:11.047Z,6.15
2022-08-16T08:28:52.943Z,6.60
2022-08-16T08:29:40.037Z,6.70
2022-08-16T08:30:51.296Z,6.50
2022-08-16T08:31:24.768Z,6.50
2022-08-16T08:32:59.690Z,6.20
2022-08-16T08:33:12.343Z,6.82
2022-08-16T08:33:58.485Z,6.40
2022-08-16T08:34:40.180Z,6.47
2022-08-16T08:35:24.435Z,6.10
2022-08-16T08:36:21.682Z,6.40
2022-08-16T08:37:04.072Z,6.90
2022-08-16T08:37:55.233Z,6.18
2022-08-16T08:38:45.150Z,6.60
2022-08-16T08:39:28.171Z,6.60
2022-08-16T08:40:12.136Z,6.60
2022-08-16T08:40:54.854Z,5.90
2022-08-16T08:41:36.857Z,6.22
2022-08-16T08:42:25.146Z,6.60
2022-08-16T08:43:17.982Z,6.75
2022-08-16T08:44:00.644Z,5.80
2022-08-16T08:45:03.850Z,6.55
2022-08-16T08:45:48.162Z,6.70
2022-08-16T08:46:36.261Z,6.72
2022-08-16T08:47:20.970Z,6.57
2022-08-16T08:48:05.957Z,6.80
2022-08-16T08:48:59.557Z,6.88
2022-08-16T08:49:46.962Z,7.35
2022-08-16T08:50:38.528Z,6.97
2022-08-16T08:51:20.524Z,6.80
2022-08-16T08:52:08.164Z,6.82
2022-08-16T08:52:52.802Z,6.60
2022-08-16T08:53:36.131Z,6.10
2022-08-16T08:54:18.826Z,6.32
2022-08-16T08:55:09.312Z,7.15
2022-08-16T08:55:59.294Z,7.60
2022-08-16T08:56:45.736Z,7.22
2022-08-16T08:57:27.891Z,6.50
2022-08-16T08:58:11.236Z,6.65
2022-08-16T08:58:59.041Z,6.57
2022-08-16T08:59:42.709Z,6.03
2022-08-16T09:00:30.246Z,7.50
2022-08-16T09:01:12.195Z,7.13
2022-08-16T09:01:56.490Z,6.65
2022-08-16T09:02:39.655Z,6.20
2022-08-16T09:03:21.478Z,6.95
2022-08-16T09:04:05.784Z,6.88
2022-08-16T09:04:47.961Z,6.13
2022-08-16T09:05:35.949Z,6.20
2022-08-16T09:06:19.181Z,6.10
2022-08-16T09:07:01.317Z,6.60
2022-08-16T09:08:01.447Z,6.90
2022-08-16T09:08:47.333Z,5.93
2022-08-16T09:09:33.438Z,6.50
2022-08-16T09:10:20.389Z,6.50
2022-08-16T09:11:03.254Z,6.53
2022-08-16T09:11:52.396Z,6.43
2022-08-16T09:12:42.005Z,6.25
2022-08-16T09:13:28.412Z,6.35
2022-08-16T09:14:23.593Z,6.10
2022-08-16T09:15:08.071Z,6.38
2022-08-16T09:15:50.304Z,6.10
2022-08-16T09:17:02.393Z,5.95
2022-08-16T09:17:53.642Z,6.40
2022-08-16T09:18:36.833Z,6.35
2022-08-16T09:19:19.358Z,6.90
2022-08-16T09:20:16.800Z,6.70
2022-08-16T09:21:01.786Z,6.18
2022-08-16T09:21:43.886Z,6.00
2022-08-16T09:22:28.122Z,6.00
2022-08-16T09:23:10.346Z,5.80
2022-08-16T09:23:52.900Z,6.45
2022-08-16T09:24:52.607Z,6.75
2022-08-16T09:25:35.771Z,6.90
2022-08-16T09:26:45.036Z,6.97
2022-08-16T09:27:19.727Z,7.93
2022-08-16T09:28:08.892Z,7.43
2022-08-16T09:29:15.159Z,7.40
2022-08-16T09:30:00.212Z,6.65
2022-08-16T09:30:44.255Z,7.13
2022-08-16T09:31:26.836Z,7.03
2022-08-16T09:32:11.731Z,7.35
2022-08-16T09:32:54.776Z,7.70
2022-08-16T09:33:37.280Z,7.70
2022-08-16T09:34:21.289Z,6.95
2022-08-16T09:35:04.831Z,6.93
2022-08-16T09:35:47.598Z,7.28
2022-08-16T09:36:35.730Z,7.45
2022-08-16T09:37:18.068Z,6.90
2022-08-16T09:38:02.321Z,7.00
2022-08-16T09:38:45.346Z,7.55
2022-08-16T09:39:28.671Z,7.22
2022-08-16T09:40:33.135Z,7.53
2022-08-16T09:41:25.181Z,7.90
2022-08-16T09:42:10.558Z,6.90
2022-08-16T09:42:56.083Z,7.85
2022-08-16T09:43:58.280Z,7.60
2022-08-16T09:45:09.607Z,6.27
2022-08-16T09:45:44.740Z,6.70
2022-08-16T09:46:33.300Z,6.80
2022-08-16T09:47:29.087Z,7.45
2022-08-16T09:48:37.106Z,6.70
2022-08-16T09:49:36.897Z,6.93
2022-08-16T09:50:22.724Z,7.22
2022-08-16T09:51:05.343Z,7.05
2022-08-16T09:51:53.260Z,6.38
2022-08-16T09:52:40.482Z,6.38
2022-08-16T09:53:26.758Z,6.75
2022-08-16T09:54:16.992Z,7.38
2022-08-16T09:54:59.053Z,7.25
2022-08-16T09:55:44.299Z,7.07
2022-08-16T09:56:31.568Z,6.72
2022-08-16T09:57:13.735Z,6.80
2022-08-16T09:57:55.853Z,7.13
2022-08-16T09:59:05.144Z,7.18
2022-08-16T09:59:42.027Z,7.30
2022-08-16T10:00:43.889Z,7.07
2022-08-16T10:01:26.323Z,5.80
2022-08-16T10:02:26.877Z,6.05
2022-08-16T10:03:10.194Z,6.43
2022-08-16T10:04:02.313Z,6.78
2022-08-16T10:04:54.443Z,6.65
2022-08-16T10:05:37.234Z,6.35
2022-08-16T10:06:21.922Z,5.50
2022-08-16T10:07:14.823Z,5.97
2022-08-16T10:07:57.453Z,6.80
2022-08-16T10:09:04.733Z,6.50
2022-08-16T10:09:53.744Z,5.85
2022-08-16T10:10:41.272Z,7.10
2022-08-16T10:11:50.303Z,7.13
2022-08-16T10:12:55.670Z,6.10
2022-08-16T10:13:39.526Z,6.60
2022-08-16T10:14:24.899Z,6.57
2022-08-16T10:15:21.051Z,6.00
2022-08-16T10:16:03.328Z,6.18
2022-08-16T10:16:45.784Z,5.70
2022-08-16T10:17:30.916Z,6.10
2022-08-16T10:19:02.319Z,6.97
2022-08-16T10:19:19.353Z,5.97
2022-08-16T10:20:01.368Z,6.60
2022-08-16T10:20:45.683Z,6.60
2022-08-16T10:21:29.218Z,6.78
2022-08-16T10:22:14.141Z,5.90
2022-08-16T10:23:05.798Z,5.80
2022-08-16T10:23:49.450Z,6.30
2022-08-16T10:24:35.298Z,6.50
2022-08-16T10:27:18.136Z,6.35
2022-08-16T10:27:19.265Z,6.88
2022-08-16T10:27:30.027Z,6.80
2022-08-16T10:28:32.154Z,7.07
2022-08-16T10:29:19.746Z,6.65
2022-08-16T10:30:07.120Z,6.47
2022-08-16T10:31:06.254Z,6.28
2022-08-16T10:31:53.874Z,7.28
2022-08-16T10:32:35.782Z,7.10
2022-08-16T10:33:21.234Z,7.00
2022-08-16T10:34:04.201Z,7.13